Time;durP1;ratioP1;P1;durP2;ratioP2;P2;SDS_P1;SDS_P2;PMS_P1;PMS_P2;Temp;Humidity;BMP_temperature;BMP_pressure;BME280_temperature;BME280_humidity;BME280_pressure;Samples;Min_cycle;Max_cycle;Signal;HPM_P1;HPM_P2
2023/08/14 00:02:22;;;;;;;5.40;4.20;;;23.00;90.80;;;;;;5134601;27;20035;-68
2023/08/14 00:04:49;;;;;;;4.97;4.35;;;22.90;90.70;;;;;;5133540;27;20019;-68
2023/08/14 00:07:14;;;;;;;7.50;4.20;;;23.00;90.70;;;;;;5134191;27;20050;-68
2023/08/14 00:09:40;;;;;;;4.93;4.45;;;22.90;90.60;;;;;;5134053;27;20057;-67
2023/08/14 00:12:06;;;;;;;5.03;4.30;;;22.90;90.60;;;;;;5133607;27;20467;-67
2023/08/14 00:14:32;;;;;;;5.97;3.90;;;22.90;90.60;;;;;;5133883;27;20076;-67
2023/08/14 00:16:58;;;;;;;4.47;4.05;;;22.80;90.70;;;;;;5133359;27;20076;-69
2023/08/14 00:19:24;;;;;;;9.23;4.43;;;22.80;90.60;;;;;;5134078;27;20042;-67
2023/08/14 00:21:50;;;;;;;7.00;4.53;;;22.80;90.30;;;;;;5133639;27;20028;-67
2023/08/14 00:24:16;;;;;;;6.03;4.45;;;22.80;90.10;;;;;;5133876;27;20038;-68
2023/08/14 00:26:41;;;;;;;6.35;4.53;;;22.80;90.30;;;;;;5133739;27;20114;-67
2023/08/14 00:29:07;;;;;;;4.65;4.03;;;22.70;90.40;;;;;;5133502;27;20156;-67
2023/08/14 00:31:32;;;;;;;5.18;4.20;;;22.80;90.30;;;;;;5133551;27;20171;-68
2023/08/14 00:33:58;;;;;;;4.38;3.97;;;22.70;90.30;;;;;;5115146;27;20019;-68
2023/08/14 00:36:24;;;;;;;5.63;4.00;;;22.70;90.40;;;;;;5133531;27;20019;-67
2023/08/14 00:38:50;;;;;;;6.63;4.72;;;22.70;90.40;;;;;;5133523;27;20070;-68
2023/08/14 00:41:15;;;;;;;6.10;4.53;;;22.70;90.40;;;;;;5133393;28;20387;-67
2023/08/14 00:43:41;;;;;;;5.40;4.03;;;22.60;90.10;;;;;;5133772;28;20023;-67
2023/08/14 00:46:07;;;;;;;6.07;4.22;;;22.70;90.20;;;;;;5133273;28;20047;-68
2023/08/14 00:48:33;;;;;;;5.00;3.70;;;22.60;90.00;;;;;;5133679;28;20034;-68
2023/08/14 00:50:59;;;;;;;6.38;4.10;;;22.60;90.00;;;;;;5132838;28;20083;-69
2023/08/14 00:53:27;;;;;;;5.55;3.78;;;22.50;89.80;;;;;;5133765;28;20051;-68
2023/08/14 00:55:54;;;;;;;6.78;3.78;;;22.50;89.60;;;;;;5133251;28;20062;-68
2023/08/14 00:58:20;;;;;;;5.60;3.95;;;22.50;89.50;;;;;;5133296;28;20039;-67
2023/08/14 01:00:46;;;;;;;4.88;3.63;;;22.50;89.30;;;;;;5133172;28;20028;-67
2023/08/14 01:03:12;;;;;;;5.05;3.90;;;22.50;89.00;;;;;;5126246;28;20030;-68
2023/08/14 01:05:38;;;;;;;4.60;4.10;;;22.50;89.00;;;;;;5112750;28;20483;-66
2023/08/14 01:08:04;;;;;;;4.50;3.92;;;22.40;89.20;;;;;;5124452;28;20486;-68
2023/08/14 01:10:43;;;;;;;5.85;4.10;;;22.50;88.70;;;;;;5133577;28;20031;-68
2023/08/14 01:13:15;;;;;;;4.95;4.13;;;22.40;88.90;;;;;;5133160;28;20038;-68
2023/08/14 01:15:45;;;;;;;4.72;3.60;;;22.40;89.00;;;;;;5133709;28;20460;-67
2023/08/14 01:18:15;;;;;;;4.93;3.80;;;22.40;88.90;;;;;;5133038;28;20023;-67
2023/08/14 01:20:46;;;;;;;4.30;3.75;;;22.40;88.80;;;;;;5133347;27;20058;-68
2023/08/14 01:23:31;;;;;;;7.03;3.75;;;22.40;88.40;;;;;;5136640;27;20030;-68
2023/08/14 01:25:57;;;;;;;4.32;3.75;;;22.40;88.40;;;;;;5137191;27;20039;-68
2023/08/14 01:28:23;;;;;;;5.22;3.60;;;22.40;88.40;;;;;;5137329;27;20034;-68
2023/08/14 01:30:48;;;;;;;5.28;3.97;;;22.40;88.90;;;;;;5137118;27;20114;-69
2023/08/14 01:33:14;;;;;;;5.97;4.35;;;22.40;89.30;;;;;;5137503;27;20438;-68
2023/08/14 01:35:46;;;;;;;4.78;4.22;;;22.30;89.50;;;;;;5137095;27;20026;-67
2023/08/14 01:38:17;;;;;;;7.53;4.25;;;22.30;89.80;;;;;;5136334;27;20035;-68
2023/08/14 01:41:22;;;;;;;4.63;4.07;;;22.30;90.00;;;;;;5137163;27;20103;-68
2023/08/14 01:43:50;;;;;;;4.20;3.80;;;22.30;90.00;;;;;;5136963;27;20019;-68
2023/08/14 01:46:17;;;;;;;4.45;3.92;;;22.30;90.20;;;;;;5136656;27;20114;-67
2023/08/14 01:48:45;;;;;;;6.63;4.65;;;22.20;90.30;;;;;;5136774;27;20035;-67
2023/08/14 01:51:12;;;;;;;4.88;4.38;;;22.20;90.50;;;;;;5136741;27;20034;-67
2023/08/14 01:53:40;;;;;;;4.85;4.45;;;22.20;90.80;;;;;;5137043;27;20023;-68
2023/08/14 01:56:06;;;;;;;8.18;4.15;;;22.10;91.10;;;;;;5136292;27;20038;-68
2023/08/14 01:58:31;;;;;;;6.95;4.95;;;22.10;91.20;;;;;;5136580;27;20036;-68
2023/08/14 02:00:57;;;;;;;6.78;4.70;;;22.10;91.50;;;;;;5136204;27;20364;-68
2023/08/14 02:03:22;;;;;;;5.60;4.30;;;22.10;91.80;;;;;;5136628;27;20471;-68
2023/08/14 02:05:48;;;;;;;6.88;5.20;;;22.00;92.10;;;;;;5136470;27;20034;-68
2023/08/14 02:08:14;;;;;;;5.30;4.15;;;22.00;92.30;;;;;;5135785;27;20027;-68
2023/08/14 02:10:39;;;;;;;6.05;4.60;;;22.00;92.40;;;;;;5136720;27;20544;-68
2023/08/14 02:13:05;;;;;;;4.95;4.55;;;22.00;92.60;;;;;;5136259;27;20033;-69
2023/08/14 02:15:30;;;;;;;5.57;4.38;;;21.90;92.90;;;;;;5136265;27;20044;-68
2023/08/14 02:17:57;;;;;;;9.32;4.50;;;21.90;92.90;;;;;;5136116;27;20020;-69
2023/08/14 02:20:24;;;;;;;6.18;4.82;;;21.90;93.00;;;;;;5136247;27;20019;-69
2023/08/14 02:22:49;;;;;;;5.55;4.57;;;21.80;93.40;;;;;;5136247;27;20031;-70
2023/08/14 02:25:15;;;;;;;5.20;4.50;;;21.80;93.50;;;;;;5135676;27;20375;-68
2023/08/14 02:27:41;;;;;;;5.15;4.65;;;21.70;93.90;;;;;;5136192;27;20023;-69
2023/08/14 02:30:07;;;;;;;5.43;4.82;;;21.70;94.10;;;;;;5135667;27;20094;-69
2023/08/14 02:32:32;;;;;;;5.63;5.00;;;21.70;94.10;;;;;;5136181;27;20035;-69
2023/08/14 02:34:58;;;;;;;5.30;4.80;;;21.70;94.40;;;;;;5135647;27;20023;-69
2023/08/14 02:37:24;;;;;;;6.63;4.88;;;21.60;94.60;;;;;;5117773;27;20079;-69
2023/08/14 02:39:50;;;;;;;5.38;4.85;;;21.60;94.80;;;;;;5135863;27;20406;-67
2023/08/14 02:42:17;;;;;;;9.57;5.88;;;21.50;95.30;;;;;;5135477;27;20094;-68
2023/08/14 02:44:42;;;;;;;5.50;4.97;;;21.50;95.50;;;;;;5135599;27;20471;-67
2023/08/14 02:47:08;;;;;;;5.90;5.22;;;21.50;95.80;;;;;;5135365;27;20102;-68
2023/08/14 02:49:34;;;;;;;7.22;4.88;;;21.50;95.60;;;;;;5135482;27;20416;-68
2023/08/14 02:51:59;;;;;;;8.95;4.88;;;21.40;95.80;;;;;;5134788;27;20036;-67
2023/08/14 02:54:25;;;;;;;6.03;5.35;;;21.40;96.00;;;;;;5135871;27;20030;-68
2023/08/14 02:56:51;;;;;;;6.53;5.82;;;21.40;96.20;;;;;;5135592;27;20472;-69
2023/08/14 02:59:17;;;;;;;5.65;4.78;;;21.40;96.40;;;;;;5131453;27;20037;-69
2023/08/14 03:01:43;;;;;;;6.13;5.47;;;21.30;96.70;;;;;;5135432;27;20047;-69
2023/08/14 03:04:08;;;;;;;5.65;5.13;;;21.30;96.70;;;;;;5134659;27;20379;-69
2023/08/14 03:06:34;;;;;;;6.57;5.53;;;21.30;97.10;;;;;;5135059;27;20027;-69
2023/08/14 03:09:00;;;;;;;6.63;5.38;;;21.20;97.40;;;;;;5134924;27;20058;-69
2023/08/14 03:11:26;;;;;;;9.43;5.65;;;21.20;97.40;;;;;;5135643;27;20027;-69
2023/08/14 03:13:52;;;;;;;6.60;5.57;;;21.20;97.50;;;;;;5135180;27;20068;-68
2023/08/14 03:16:18;;;;;;;5.90;5.30;;;21.20;97.70;;;;;;5134754;27;20106;-69
2023/08/14 03:18:43;;;;;;;6.53;5.13;;;21.20;97.90;;;;;;5135065;27;20070;-69
2023/08/14 03:21:09;;;;;;;7.35;5.85;;;21.20;98.00;;;;;;5134573;27;20027;-69
2023/08/14 03:23:36;;;;;;;5.65;5.15;;;21.20;98.10;;;;;;5134785;27;20252;-69
2023/08/14 03:26:02;;;;;;;6.45;5.68;;;21.20;98.30;;;;;;5134333;27;20027;-69
2023/08/14 03:28:28;;;;;;;8.32;6.07;;;21.20;98.30;;;;;;5135041;27;20031;-69
2023/08/14 03:30:54;;;;;;;8.20;5.47;;;21.20;98.40;;;;;;5134974;27;20110;-68
2023/08/14 03:33:20;;;;;;;8.23;5.38;;;21.20;98.40;;;;;;5134451;27;20019;-69
2023/08/14 03:35:45;;;;;;;5.78;5.28;;;21.20;98.40;;;;;;5134814;27;20071;-69
2023/08/14 03:38:11;;;;;;;6.25;5.63;;;21.20;98.60;;;;;;5134392;27;20046;-69
2023/08/14 03:40:37;;;;;;;9.27;5.55;;;21.20;98.30;;;;;;5134850;27;20030;-67
2023/08/14 03:43:02;;;;;;;5.78;4.90;;;21.20;98.40;;;;;;5133982;27;20471;-67
2023/08/14 03:45:28;;;;;;;6.03;5.25;;;21.20;98.40;;;;;;5134109;27;20023;-69
2023/08/14 03:47:54;;;;;;;8.10;5.70;;;21.20;98.50;;;;;;5134505;27;20054;-69
2023/08/14 03:50:19;;;;;;;5.95;5.40;;;21.20;98.80;;;;;;5134172;27;20067;-69
2023/08/14 03:52:45;;;;;;;6.47;5.55;;;21.20;98.80;;;;;;5134738;27;20053;-69
2023/08/14 03:55:10;;;;;;;7.38;5.20;;;21.20;98.70;;;;;;5133763;27;20029;-68
2023/08/14 03:57:36;;;;;;;5.93;5.30;;;21.20;98.80;;;;;;5134322;27;20029;-69
2023/08/14 04:00:02;;;;;;;6.10;5.50;;;21.20;99.10;;;;;;5133646;27;20034;-70
2023/08/14 04:02:28;;;;;;;8.70;5.72;;;21.20;99.10;;;;;;5134607;27;20023;-69
2023/08/14 04:04:54;;;;;;;6.75;5.13;;;21.20;99.10;;;;;;5133989;27;20392;-69
2023/08/14 04:07:19;;;;;;;7.43;5.72;;;21.20;99.10;;;;;;5133591;27;20203;-69
2023/08/14 04:09:45;;;;;;;6.28;5.68;;;21.20;99.10;;;;;;5134331;27;20041;-69
2023/08/14 04:12:11;;;;;;;7.07;5.60;;;21.20;99.10;;;;;;5133843;27;20023;-69
2023/08/14 04:14:36;;;;;;;7.22;5.82;;;21.20;98.70;;;;;;5134142;27;20420;-69
2023/08/14 04:17:02;;;;;;;8.93;5.68;;;21.20;99.20;;;;;;5133647;27;20019;-70
2023/08/14 04:19:28;;;;;;;6.97;6.03;;;21.20;99.10;;;;;;5133838;27;20065;-69
2023/08/14 04:21:54;;;;;;;7.72;5.07;;;21.20;99.10;;;;;;5134324;27;20058;-69
2023/08/14 04:24:19;;;;;;;5.93;5.13;;;21.20;99.20;;;;;;5133605;27;20024;-69
2023/08/14 04:26:45;;;;;;;6.45;5.38;;;21.20;99.20;;;;;;5133998;27;20031;-69
2023/08/14 04:29:11;;;;;;;6.68;5.95;;;21.30;99.10;;;;;;5133573;27;20561;-69
2023/08/14 04:31:38;;;;;;;6.07;5.40;;;21.40;98.70;;;;;;5133941;27;20127;-69
2023/08/14 04:34:04;;;;;;;7.00;5.47;;;21.40;98.60;;;;;;5133429;27;20023;-69
2023/08/14 04:36:32;;;;;;;7.28;5.53;;;21.40;98.50;;;;;;5133379;27;20031;-69
2023/08/14 04:38:58;;;;;;;6.53;5.57;;;21.40;98.50;;;;;;5133437;27;20118;-69
2023/08/14 04:41:24;;;;;;;6.50;5.43;;;21.40;98.60;;;;;;5133465;28;20454;-69
2023/08/14 04:43:50;;;;;;;6.25;5.38;;;21.50;98.50;;;;;;5133756;28;20025;-69
2023/08/14 04:46:34;;;;;;;7.20;5.57;;;21.50;98.50;;;;;;5133056;28;20102;-69
2023/08/14 04:49:01;;;;;;;6.82;6.00;;;21.60;98.30;;;;;;5133271;28;20514;-69
2023/08/14 04:51:27;;;;;;;7.78;5.40;;;21.70;98.20;;;;;;5131318;28;20106;-69
2023/08/14 04:53:54;;;;;;;8.85;5.43;;;21.70;97.80;;;;;;5133584;28;20110;-69
2023/08/14 04:56:20;;;;;;;7.93;5.00;;;21.90;97.60;;;;;;5133759;27;20054;-69
2023/08/14 04:58:45;;;;;;;9.52;4.93;;;22.00;97.50;;;;;;5137758;27;20035;-68
2023/08/14 05:01:11;;;;;;;8.02;4.88;;;22.00;97.00;;;;;;5137192;27;20023;-68
2023/08/14 05:03:37;;;;;;;5.57;5.07;;;22.10;96.80;;;;;;5137673;27;20031;-69
2023/08/14 05:06:03;;;;;;;6.00;4.65;;;22.10;96.60;;;;;;5137496;27;20026;-68
2023/08/14 05:08:29;;;;;;;5.88;5.28;;;22.20;96.30;;;;;;5137291;27;20102;-68
2023/08/14 05:10:55;;;;;;;5.63;4.65;;;22.20;96.00;;;;;;5137705;27;20053;-69
2023/08/14 05:13:21;;;;;;;6.00;5.05;;;22.20;96.00;;;;;;5136875;27;20157;-69
2023/08/14 05:15:48;;;;;;;7.22;4.93;;;22.30;95.70;;;;;;5137693;27;20042;-68
2023/08/14 05:18:14;;;;;;;7.32;4.72;;;22.30;95.80;;;;;;5136939;27;20030;-69
2023/08/14 05:20:46;;;;;;;5.80;5.20;;;22.40;95.70;;;;;;5137336;27;20106;-69
2023/08/14 05:23:13;;;;;;;5.38;4.88;;;22.40;95.60;;;;;;5136607;27;20436;-67
2023/08/14 05:25:41;;;;;;;5.75;4.95;;;22.40;95.50;;;;;;5137681;27;20142;-69
2023/08/14 05:28:07;;;;;;;7.03;4.97;;;22.50;95.50;;;;;;5136863;27;20089;-70
2023/08/14 05:30:32;;;;;;;5.53;4.82;;;22.50;95.20;;;;;;5137335;27;20023;-68
2023/08/14 05:32:58;;;;;;;6.95;5.18;;;22.60;95.00;;;;;;5137292;27;20443;-68
2023/08/14 05:35:24;;;;;;;6.05;4.78;;;22.70;94.80;;;;;;5136936;27;20023;-67
2023/08/14 05:37:58;;;;;;;8.82;4.43;;;22.80;94.70;;;;;;5136544;27;20379;-67
2023/08/14 05:40:24;;;;;;;7.47;4.68;;;23.00;94.50;;;;;;5136538;27;20050;-67
2023/08/14 05:43:06;;;;;;;8.57;4.75;;;23.30;93.50;;;;;;5136919;27;20459;-67
2023/08/14 05:45:32;;;;;;;5.15;4.72;;;23.50;92.70;;;;;;5136378;27;20027;-67
2023/08/14 05:47:59;;;;;;;6.18;4.15;;;23.80;91.90;;;;;;5136972;27;20026;-69
2023/08/14 05:50:26;;;;;;;5.63;4.28;;;24.10;90.70;;;;;;5135005;27;20134;-68
2023/08/14 05:52:54;;;;;;;8.20;4.38;;;24.40;89.50;;;;;;5135524;28;20027;-67
2023/08/14 05:55:20;;;;;;;4.20;3.50;;;24.90;87.10;;;;;;5135013;28;20035;-68
2023/08/14 05:57:46;;;;;;;7.90;4.28;;;25.30;83.10;;;;;;5135478;28;20086;-68
2023/08/14 06:00:12;;;;;;;8.82;3.63;;;25.90;80.30;;;;;;5134960;28;20039;-68
2023/08/14 06:02:38;;;;;;;4.10;3.22;;;26.90;77.50;;;;;;5135098;28;20119;-67
2023/08/14 06:05:04;;;;;;;6.65;3.28;;;27.70;71.10;;;;;;5134958;28;20034;-69
2023/08/14 06:07:29;;;;;;;6.15;3.13;;;28.70;68.50;;;;;;5134467;27;20212;-67
2023/08/14 06:09:55;;;;;;;10.93;3.83;;;29.50;65.00;;;;;;5135356;28;20027;-67
2023/08/14 06:12:20;;;;;;;6.10;3.05;;;30.00;63.00;;;;;;5134555;28;20392;-69
2023/08/14 06:14:46;;;;;;;3.45;3.00;;;30.40;60.90;;;;;;5135676;28;20023;-68
2023/08/14 06:17:12;;;;;;;4.10;2.70;;;30.70;60.60;;;;;;5134653;28;20445;-68
2023/08/14 06:19:37;;;;;;;3.40;3.10;;;31.00;58.40;;;;;;5135278;28;20355;-68
2023/08/14 06:22:05;;;;;;;3.90;3.10;;;31.40;58.20;;;;;;5135107;28;20063;-68
2023/08/14 06:24:30;;;;;;;4.50;2.90;;;31.40;56.90;;;;;;5134341;28;20471;-69
2023/08/14 06:26:56;;;;;;;6.13;2.95;;;31.50;56.90;;;;;;5135033;28;20106;-69
2023/08/14 06:29:22;;;;;;;7.22;3.20;;;31.50;56.70;;;;;;5134592;28;20118;-68
2023/08/14 06:31:48;;;;;;;7.00;3.50;;;31.40;57.00;;;;;;5134966;28;20035;-69
2023/08/14 06:34:13;;;;;;;7.78;3.17;;;31.40;56.80;;;;;;5116085;28;20023;-69
2023/08/14 06:36:39;;;;;;;5.82;2.97;;;31.40;57.20;;;;;;5134505;28;20376;-68
2023/08/14 06:39:05;;;;;;;10.30;3.50;;;31.40;56.20;;;;;;5134687;28;20134;-68
2023/08/14 06:41:30;;;;;;;5.78;3.22;;;31.60;55.90;;;;;;5134018;28;20174;-68
2023/08/14 06:43:56;;;;;;;8.02;3.17;;;31.80;54.70;;;;;;5134287;28;20027;-68
2023/08/14 06:46:21;;;;;;;4.88;2.70;;;32.30;54.70;;;;;;5124869;28;20081;-68
2023/08/14 06:48:47;;;;;;;6.85;2.72;;;32.60;53.30;;;;;;5066649;28;1329091;-68
2023/08/14 06:51:13;;;;;;;3.10;2.78;;;33.10;52.70;;;;;;5114213;28;20019;-70
2023/08/14 06:53:38;;;;;;;7.18;3.25;;;33.40;51.80;;;;;;5115133;28;20119;-67
2023/08/14 06:56:04;;;;;;;3.65;2.72;;;33.80;49.90;;;;;;5114537;28;20112;-68
2023/08/14 06:58:30;;;;;;;8.38;3.08;;;34.00;50.00;;;;;;5114225;28;20034;-68
2023/08/14 07:00:55;;;;;;;4.72;2.42;;;34.10;48.40;;;;;;5114947;28;20024;-68
2023/08/14 07:03:21;;;;;;;6.25;2.80;;;34.80;47.50;;;;;;5124116;27;20026;-68
2023/08/14 07:05:47;;;;;;;2.80;2.60;;;35.30;46.60;;;;;;5135255;27;20050;-68
2023/08/14 07:08:13;;;;;;;4.75;2.83;;;35.70;45.70;;;;;;5135087;27;20076;-68
2023/08/14 07:10:39;;;;;;;2.97;2.47;;;36.20;44.50;;;;;;5116647;27;20023;-68
2023/08/14 07:13:06;;;;;;;3.63;2.72;;;36.60;43.80;;;;;;5135064;27;20138;-67
2023/08/14 07:15:32;;;;;;;4.15;2.25;;;36.60;43.70;;;;;;5116482;27;20031;-68
2023/08/14 07:17:58;;;;;;;7.53;2.45;;;37.30;42.20;;;;;;5134917;27;20027;-68
2023/08/14 07:20:23;;;;;;;3.38;2.35;;;37.50;41.80;;;;;;5133611;27;20440;-68
2023/08/14 07:22:49;;;;;;;3.72;2.90;;;37.80;41.80;;;;;;5135065;27;20027;-69
2023/08/14 07:25:14;;;;;;;2.85;2.50;;;38.20;41.10;;;;;;5116546;27;20031;-69
2023/08/14 07:27:40;;;;;;;2.78;2.40;;;38.60;40.70;;;;;;5134746;27;20027;-69
2023/08/14 07:30:07;;;;;;;4.20;2.50;;;39.20;40.10;;;;;;5134692;27;20026;-67
2023/08/14 07:32:32;;;;;;;5.93;2.70;;;39.60;38.30;;;;;;5133939;27;20068;-68
2023/08/14 07:34:58;;;;;;;3.60;2.50;;;40.00;38.00;;;;;;5134724;27;20027;-69
2023/08/14 07:37:24;;;;;;;2.40;2.20;;;40.30;38.30;;;;;;5133767;27;20023;-68
2023/08/14 07:39:49;;;;;;;3.60;2.75;;;40.40;37.20;;;;;;5116156;27;20039;-68
2023/08/14 07:42:15;;;;;;;3.38;2.15;;;40.30;36.80;;;;;;5134129;27;20456;-68
2023/08/14 07:44:40;;;;;;;6.93;2.63;;;40.40;36.70;;;;;;5133661;27;20106;-68
2023/08/14 07:47:06;;;;;;;5.13;2.50;;;40.50;37.00;;;;;;5134256;27;20375;-69
2023/08/14 07:49:35;;;;;;;3.50;2.47;;;40.50;36.90;;;;;;5133687;27;20484;-69
2023/08/14 07:52:01;;;;;;;5.40;2.58;;;40.70;36.30;;;;;;5133978;27;20023;-68
2023/08/14 07:54:26;;;;;;;3.13;2.38;;;40.60;36.50;;;;;;5134011;27;20156;-68
2023/08/14 07:56:53;;;;;;;3.97;2.33;;;40.90;36.20;;;;;;5134198;27;20443;-69
2023/08/14 07:59:19;;;;;;;5.35;2.72;;;41.00;35.50;;;;;;5133469;27;20035;-68
2023/08/14 08:01:45;;;;;;;4.47;2.35;;;40.90;35.10;;;;;;5134116;27;20038;-69
2023/08/14 08:04:11;;;;;;;5.25;2.10;;;41.00;36.00;;;;;;5115623;27;20110;-68
2023/08/14 08:06:37;;;;;;;5.28;2.60;;;41.20;35.70;;;;;;5133632;27;20511;-68
2023/08/14 08:09:04;;;;;;;6.65;2.30;;;41.40;35.70;;;;;;5134015;27;20098;-68
2023/08/14 08:11:29;;;;;;;9.75;2.80;;;41.30;35.40;;;;;;5133408;27;20478;-68
2023/08/14 08:13:55;;;;;;;2.92;2.15;;;41.50;34.90;;;;;;5133950;27;20035;-69
2023/08/14 08:16:21;;;;;;;5.53;2.50;;;41.30;34.60;;;;;;5133248;27;20031;-69
2023/08/14 08:18:46;;;;;;;4.55;2.40;;;41.00;34.80;;;;;;5133555;27;20035;-68
2023/08/14 08:21:12;;;;;;;4.43;2.08;;;40.90;34.80;;;;;;5133670;27;20027;-68
2023/08/14 08:23:38;;;;;;;7.07;2.42;;;41.00;35.20;;;;;;5133489;27;20464;-68
2023/08/14 08:26:03;;;;;;;3.50;2.50;;;40.70;34.50;;;;;;5134349;27;20375;-68
2023/08/14 08:28:29;;;;;;;6.00;2.20;;;40.20;35.10;;;;;;5133149;27;20031;-68
2023/08/14 08:30:55;;;;;;;4.13;2.20;;;40.00;35.80;;;;;;5133661;27;20067;-68
2023/08/14 08:33:20;;;;;;;3.85;2.40;;;39.50;35.90;;;;;;5133636;27;20034;-70
2023/08/14 08:35:46;;;;;;;2.80;2.20;;;39.10;36.00;;;;;;5114993;27;20031;-68
2023/08/14 08:38:11;;;;;;;5.18;1.90;;;38.30;36.60;;;;;;5129784;27;20016;-68
2023/08/14 08:40:41;;;;;;;4.82;2.70;;;37.80;37.70;;;;;;5133540;27;20102;-69
2023/08/14 08:43:07;;;;;;;3.90;2.10;;;37.40;38.10;;;;;;5133896;28;20068;-68
2023/08/14 08:45:36;;;;;;;3.53;2.40;;;37.20;38.50;;;;;;5132898;28;20478;-67
2023/08/14 08:48:05;;;;;;;3.67;1.98;;;36.80;39.00;;;;;;5133568;28;20084;-68
2023/08/14 08:50:31;;;;;;;2.65;2.42;;;36.70;39.80;;;;;;5133232;27;20166;-69
2023/08/14 08:52:57;;;;;;;10.15;2.97;;;36.30;40.40;;;;;;5133301;28;20043;-68
2023/08/14 08:55:23;;;;;;;4.60;2.50;;;36.00;40.70;;;;;;5133054;28;20035;-68
2023/08/14 08:57:49;;;;;;;14.20;2.60;;;35.70;40.90;;;;;;5133877;28;20344;-69
2023/08/14 09:00:15;;;;;;;4.68;2.15;;;35.60;41.20;;;;;;5133290;28;20523;-68
2023/08/14 09:02:41;;;;;;;5.60;2.42;;;35.40;41.20;;;;;;5132852;28;20019;-68
2023/08/14 09:05:07;;;;;;;2.35;1.98;;;35.30;41.40;;;;;;5115259;28;20206;-68
2023/08/14 09:07:33;;;;;;;4.82;2.20;;;35.10;39.90;;;;;;5132802;28;20463;-68
2023/08/14 09:10:00;;;;;;;2.55;2.00;;;34.70;39.90;;;;;;5133292;28;20023;-68
2023/08/14 09:12:26;;;;;;;5.72;1.90;;;34.50;40.70;;;;;;5132713;28;20039;-68
2023/08/14 09:15:04;;;;;;;5.70;2.05;;;33.90;40.20;;;;;;5133224;28;20023;-68
2023/08/14 09:17:30;;;;;;;6.18;2.10;;;33.60;40.20;;;;;;5132798;28;20023;-68
2023/08/14 09:19:56;;;;;;;2.95;1.98;;;33.30;40.90;;;;;;5133151;28;20126;-68
2023/08/14 09:22:24;;;;;;;3.00;1.70;;;33.00;41.30;;;;;;5133350;28;20110;-68
2023/08/14 09:24:51;;;;;;;6.28;1.80;;;32.70;40.50;;;;;;5133134;28;20032;-68
2023/08/14 09:27:16;;;;;;;2.13;1.83;;;32.50;40.90;;;;;;5132966;28;20160;-68
2023/08/14 09:29:42;;;;;;;2.50;1.83;;;32.40;41.90;;;;;;5133046;28;20106;-68
2023/08/14 09:32:10;;;;;;;6.13;1.80;;;32.30;42.00;;;;;;5133089;28;20024;-68
2023/08/14 09:34:37;;;;;;;3.30;1.70;;;32.10;41.50;;;;;;5114200;28;20161;-69
2023/08/14 09:37:04;;;;;;;2.35;1.73;;;32.10;41.80;;;;;;5132935;28;20026;-68
2023/08/14 09:39:30;;;;;;;3.03;1.40;;;32.10;41.30;;;;;;5132367;28;20130;-68
2023/08/14 09:41:56;;;;;;;3.70;1.75;;;32.00;40.20;;;;;;5132805;27;20031;-68
2023/08/14 09:44:23;;;;;;;4.63;1.80;;;32.00;41.20;;;;;;5118105;27;20467;-68
2023/08/14 09:46:51;;;;;;;4.22;1.67;;;31.90;40.50;;;;;;5136394;27;20030;-68
2023/08/14 09:49:18;;;;;;;4.05;2.17;;;31.80;39.80;;;;;;5136366;27;20387;-69
2023/08/14 09:51:53;;;;;;;2.10;1.70;;;31.80;39.90;;;;;;5136325;27;20102;-68
2023/08/14 09:54:19;;;;;;;5.10;2.08;;;31.70;40.50;;;;;;5136030;27;20065;-70
2023/08/14 09:56:46;;;;;;;6.55;2.58;;;31.70;40.50;;;;;;5117381;27;20058;-69
2023/08/14 09:59:11;;;;;;;5.20;1.60;;;31.60;40.50;;;;;;5136122;27;20027;-70
2023/08/14 10:01:38;;;;;;;3.17;2.15;;;31.60;40.20;;;;;;5132500;27;20079;-69
2023/08/14 10:04:04;;;;;;;2.55;1.77;;;31.70;40.10;;;;;;5135898;27;20523;-71
2023/08/14 10:06:31;;;;;;;3.08;1.52;;;31.70;40.90;;;;;;5135694;27;20020;-70
2023/08/14 10:08:58;;;;;;;6.05;1.70;;;31.60;40.80;;;;;;5136258;27;20031;-70
2023/08/14 10:11:28;;;;;;;5.05;2.00;;;31.70;40.90;;;;;;5136424;27;20031;-70
2023/08/14 10:14:02;;;;;;;3.13;1.77;;;31.70;41.70;;;;;;5136125;27;20095;-71
2023/08/14 10:16:36;;;;;;;2.90;1.73;;;31.60;39.90;;;;;;5136349;27;20030;-71
2023/08/14 10:19:04;;;;;;;4.97;1.98;;;31.60;40.00;;;;;;5136294;27;20080;-68
2023/08/14 10:21:37;;;;;;;5.00;1.73;;;31.50;41.20;;;;;;5135838;27;20027;-73
2023/08/14 10:24:04;;;;;;;7.18;1.90;;;31.60;41.10;;;;;;5135607;27;20022;-67
2023/08/14 10:26:32;;;;;;;5.63;2.67;;;31.50;40.20;;;;;;5135323;27;20031;-71
2023/08/14 10:28:59;;;;;;;2.60;1.95;;;31.40;40.20;;;;;;5135939;27;20026;-67
2023/08/14 10:31:28;;;;;;;3.50;1.80;;;31.40;40.70;;;;;;5136041;27;20028;-66
2023/08/14 10:33:56;;;;;;;5.35;2.38;;;31.40;40.70;;;;;;5135276;27;20383;-67
2023/08/14 10:36:22;;;;;;;3.85;1.80;;;31.40;41.00;;;;;;5135980;27;20059;-66
2023/08/14 10:38:50;;;;;;;2.53;1.50;;;31.50;40.40;;;;;;5135216;27;20459;-66
2023/08/14 10:41:17;;;;;;;3.97;2.00;;;31.50;40.30;;;;;;5135730;27;20035;-66
2023/08/14 10:43:46;;;;;;;3.40;1.90;;;31.60;40.80;;;;;;5135459;27;20138;-65
2023/08/14 10:46:15;;;;;;;3.97;1.75;;;31.60;40.70;;;;;;5131935;27;20015;-66
2023/08/14 10:48:43;;;;;;;3.50;1.80;;;31.60;40.00;;;;;;5135015;27;20031;-67
2023/08/14 10:51:10;;;;;;;3.65;1.90;;;31.60;40.20;;;;;;5135780;27;20471;-67
2023/08/14 10:53:40;;;;;;;4.28;1.88;;;31.60;40.90;;;;;;5134573;27;20050;-67
2023/08/14 10:56:06;;;;;;;1.98;1.73;;;31.60;40.20;;;;;;5134623;27;20392;-67
2023/08/14 10:58:35;;;;;;;8.27;1.98;;;31.50;40.10;;;;;;5134562;27;20023;-66
2023/08/14 11:01:01;;;;;;;2.20;1.83;;;31.50;41.00;;;;;;5134913;27;20023;-66
2023/08/14 11:03:28;;;;;;;3.90;1.75;;;31.60;40.80;;;;;;5116252;27;20053;-66
2023/08/14 11:05:54;;;;;;;2.72;1.70;;;31.60;40.80;;;;;;5134171;27;20034;-66
2023/08/14 11:08:21;;;;;;;2.13;1.63;;;31.60;36.90;;;;;;5116329;27;20027;-65
2023/08/14 11:10:48;;;;;;;2.92;1.90;;;31.60;38.40;;;;;;5134100;27;20046;-66
2023/08/14 11:13:14;;;;;;;6.28;1.70;;;31.60;39.80;;;;;;5134870;27;20038;-66
2023/08/14 11:15:41;;;;;;;3.15;1.95;;;31.60;41.50;;;;;;5134212;27;20027;-70
2023/08/14 11:18:11;;;;;;;2.67;1.83;;;31.60;42.80;;;;;;5134187;27;20109;-67
2023/08/14 11:20:38;;;;;;;5.13;2.13;;;31.60;42.60;;;;;;5133596;27;20453;-67
2023/08/14 11:23:06;;;;;;;4.32;2.10;;;31.60;42.10;;;;;;5134412;27;20023;-67
2023/08/14 11:25:33;;;;;;;5.47;1.83;;;31.60;42.20;;;;;;5134640;27;20130;-68
2023/08/14 11:27:59;;;;;;;4.10;1.90;;;31.50;41.40;;;;;;5134002;27;20383;-69
2023/08/14 11:30:30;;;;;;;1.85;1.50;;;31.50;42.10;;;;;;5134057;27;20425;-68
2023/08/14 11:32:56;;;;;;;;;;;31.40;43.80;;;;;;5134222;27;20027;-67
2023/08/14 11:35:22;;;;;;;4.70;1.90;;;31.50;43.10;;;;;;5133932;27;19952;-68
2023/08/14 11:37:47;;;;;;;4.97;2.10;;;31.60;42.60;;;;;;5133894;27;20020;-66
2023/08/14 11:40:15;;;;;;;6.03;1.92;;;31.60;43.40;;;;;;5133886;27;20042;-65
2023/08/14 11:42:42;;;;;;;2.15;1.95;;;31.60;41.00;;;;;;5133709;27;20027;-65
2023/08/14 11:45:09;;;;;;;3.60;1.85;;;31.60;42.30;;;;;;5134051;27;20035;-68
2023/08/14 11:47:47;;;;;;;3.63;2.17;;;31.60;42.90;;;;;;5133998;27;20023;-74
2023/08/14 11:50:14;;;;;;;3.42;1.85;;;31.50;42.90;;;;;;5134850;27;20083;-67
2023/08/14 11:52:42;;;;;;;5.40;1.88;;;31.50;43.70;;;;;;5133617;27;20045;-66
2023/08/14 11:55:08;;;;;;;5.78;2.05;;;31.60;43.60;;;;;;5134570;27;20083;-66
2023/08/14 11:57:34;;;;;;;4.25;1.98;;;31.60;43.50;;;;;;5134802;27;20054;-66
2023/08/14 12:00:00;;;;;;;5.43;2.03;;;31.60;43.10;;;;;;5133545;27;20066;-66
2023/08/14 12:02:28;;;;;;;2.30;1.58;;;31.70;43.00;;;;;;5134428;27;20038;-67
2023/08/14 12:05:00;;;;;;;2.60;2.10;;;31.70;42.70;;;;;;5133450;27;20375;-67
2023/08/14 12:07:27;;;;;;;5.13;1.98;;;31.70;42.70;;;;;;5134420;27;20032;-67
2023/08/14 12:09:54;;;;;;;3.25;2.00;;;31.60;42.80;;;;;;5133878;27;20027;-67
2023/08/14 12:12:20;;;;;;;2.10;1.90;;;31.50;42.80;;;;;;5134455;27;20031;-67
2023/08/14 12:14:47;;;;;;;3.88;1.92;;;31.40;43.30;;;;;;5133833;27;20051;-67
2023/08/14 12:17:16;;;;;;;3.15;2.10;;;31.40;43.60;;;;;;5116006;27;20023;-67
2023/08/14 12:19:47;;;;;;;4.10;1.92;;;31.20;43.50;;;;;;5133538;27;20067;-67
2023/08/14 12:22:12;;;;;;;5.45;1.80;;;31.10;43.20;;;;;;5134141;27;20023;-66
2023/08/14 12:24:40;;;;;;;2.38;1.90;;;31.10;43.50;;;;;;5134145;27;20034;-66
2023/08/14 12:27:21;;;;;;;5.13;1.88;;;31.00;43.50;;;;;;5133725;27;20023;-66
2023/08/14 12:29:48;;;;;;;3.78;1.95;;;31.00;42.70;;;;;;5133853;27;20551;-66
2023/08/14 12:32:14;;;;;;;4.10;1.92;;;30.90;43.30;;;;;;5133573;27;20027;-66
2023/08/14 12:34:40;;;;;;;4.05;1.60;;;30.80;42.60;;;;;;5133928;27;20027;-66
2023/08/14 12:37:07;;;;;;;5.35;2.45;;;30.80;43.20;;;;;;5133789;27;20037;-66
2023/08/14 12:39:33;;;;;;;7.80;1.90;;;30.80;42.80;;;;;;5133673;27;20038;-68
2023/08/14 12:42:02;;;;;;;2.83;1.90;;;30.70;42.70;;;;;;5132987;27;20035;-66
2023/08/14 12:44:29;;;;;;;3.03;1.90;;;30.60;43.20;;;;;;5134022;28;20050;-67
2023/08/14 12:46:55;;;;;;;2.55;1.98;;;30.50;43.70;;;;;;5132998;28;20066;-66